PWSweather.com
Personal Weather Stations
Station Observations
KCOGRAND2
Redlands, Southcamp Road & Dakota Circle, Grand Junction, CO 81507

Redlands, Southcamp Road & Dakota CircleGrand Junction, CO 81507

Lat: 39.055, Lon: -108.637

Elevation: 4870

Station Type: RadioShack WX200

Latest ConditionsUpdated 9:54:40 PM MDT Friday, Mar 27, 2015
Currently Today's Max Today's Min Today's Average
Temperature 58.8°F14.9°C 72.7°F22.6°C 34.9°F1.6°C 55.2°F12.9°C
Dew Point -5537.2°C 16.0°F-8.9°C -5.4°F-20.8°C 6.6°F-14.1°C
Winds 3.0 mph NE4.8 kmh NE 9.0 mph N14.5 kmh N - 3.4 mph 5.5 kmh
Wind Gusts 4.5 mph7.2 kmh 14.3 mph23.0 kmh - -
Humidity - 39% 12% 24%
Pressure 25.16 in852.0 mb 25.31 in857.1 mb 25.13 in851.0 mb -
Hour Temp Dew Point Humidity Winds Wind Gusts Pressure Precip Precip Rate Daily Precip Total
09:54 PM 58.8°F14.9°C -5537.2°C - 3.0 mph NE4.8 kmh NE 4.5 mph7.2 kmh 25.16 in852.0 mb 0.00 in0.0 mm 0.00 in0.0 mm 0.00 in0.0 mm
09:49 PM 59.0°F15.0°C -5537.2°C - 3.0 mph E4.8 kmh E 6.3 mph10.1 kmh 25.16 in852.0 mb 0.00 in0.0 mm 0.00 in0.0 mm 0.00 in0.0 mm
09:44 PM 59.2°F15.1°C -5537.2°C - 3.0 mph SE4.8 kmh SE 5.4 mph8.7 kmh 25.16 in852.0 mb 0.00 in0.0 mm 0.00 in0.0 mm 0.00 in0.0 mm
09:39 PM 61.0°F16.1°C -5537.2°C - 5.0 mph SE8.0 kmh SE 6.9 mph11.1 kmh 25.16 in852.0 mb 0.00 in0.0 mm 0.00 in0.0 mm 0.00 in0.0 mm
09:34 PM 61.9°F16.6°C -5537.2°C - 6.0 mph SSE9.7 kmh SSE 7.4 mph11.9 kmh 25.16 in852.0 mb 0.00 in0.0 mm 0.00 in0.0 mm 0.00 in0.0 mm
09:29 PM 62.2°F16.8°C -5537.2°C - 6.0 mph S9.7 kmh S 8.3 mph13.4 kmh 25.16 in852.0 mb 0.00 in0.0 mm 0.00 in0.0 mm 0.00 in0.0 mm
09:24 PM 62.1°F16.7°C -5537.2°C - 5.0 mph SW8.0 kmh SW 9.2 mph14.8 kmh 25.16 in852.0 mb 0.00 in0.0 mm 0.00 in0.0 mm 0.00 in0.0 mm
09:19 PM 61.0°F16.1°C -5537.2°C - 5.0 mph W8.0 kmh W 6.7 mph10.8 kmh 25.16 in852.0 mb 0.00 in0.0 mm 0.00 in0.0 mm 0.00 in0.0 mm
09:14 PM 60.6°F15.9°C -5537.2°C - 4.0 mph W6.4 kmh W 6.3 mph10.1 kmh 25.16 in852.0 mb 0.00 in0.0 mm 0.00 in0.0 mm 0.00 in0.0 mm
09:09 PM 59.7°F15.4°C -5537.2°C - 3.0 mph W4.8 kmh W 5.4 mph8.7 kmh 25.16 in852.0 mb 0.00 in0.0 mm 0.00 in0.0 mm 0.00 in0.0 mm
09:04 PM 59.5°F15.3°C -5537.2°C - 2.0 mph W3.2 kmh W 4.0 mph6.4 kmh 25.16 in852.0 mb 0.00 in0.0 mm 0.00 in0.0 mm 0.00 in0.0 mm
08:59 PM 59.9°F15.5°C -5537.2°C - 1.0 mph W1.6 kmh W 5.8 mph9.3 kmh 25.16 in852.0 mb 0.00 in0.0 mm 0.00 in0.0 mm 0.00 in0.0 mm
08:54 PM 60.1°F15.6°C -5537.2°C - Calm Calm 4.5 mph7.2 kmh 25.16 in852.0 mb 0.00 in0.0 mm 0.00 in0.0 mm 0.00 in0.0 mm
08:49 PM 61.0°F16.1°C -5537.2°C - Calm Calm -- 25.16 in852.0 mb 0.00 in0.0 mm 0.00 in0.0 mm 0.00 in0.0 mm
08:44 PM 61.2°F16.2°C -5537.2°C - Calm Calm 3.1 mph5.0 kmh 25.16 in852.0 mb 0.00 in0.0 mm 0.00 in0.0 mm 0.00 in0.0 mm
08:39 PM 61.0°F16.1°C -5537.2°C - Calm Calm 2.7 mph4.3 kmh 25.16 in852.0 mb 0.00 in0.0 mm 0.00 in0.0 mm 0.00 in0.0 mm
08:34 PM 61.2°F16.2°C -5537.2°C - 1.0 mph W1.6 kmh W 4.0 mph6.4 kmh 25.16 in852.0 mb 0.00 in0.0 mm 0.00 in0.0 mm 0.00 in0.0 mm
08:29 PM 61.3°F16.3°C -5537.2°C - Calm Calm 4.0 mph6.4 kmh 25.16 in852.0 mb 0.00 in0.0 mm 0.00 in0.0 mm 0.00 in0.0 mm
08:24 PM 61.3°F16.3°C -5537.2°C - 1.0 mph W1.6 kmh W 3.6 mph5.8 kmh 25.16 in852.0 mb 0.00 in0.0 mm 0.00 in0.0 mm 0.00 in0.0 mm
08:19 PM 61.7°F16.5°C -5537.2°C - 1.0 mph W1.6 kmh W 3.6 mph5.8 kmh 25.16 in852.0 mb 0.00 in0.0 mm 0.00 in0.0 mm 0.00 in0.0 mm
08:14 PM 61.9°F16.6°C -5537.2°C - 2.0 mph W3.2 kmh W 3.6 mph5.8 kmh 25.13 in851.0 mb 0.00 in0.0 mm 0.00 in0.0 mm 0.00 in0.0 mm
08:09 PM 62.2°F16.8°C -5537.2°C - 2.0 mph W3.2 kmh W 4.5 mph7.2 kmh 25.13 in851.0 mb 0.00 in0.0 mm 0.00 in0.0 mm 0.00 in0.0 mm
08:04 PM 62.2°F16.8°C -5537.2°C - 1.0 mph W1.6 kmh W 4.5 mph7.2 kmh 25.13 in851.0 mb 0.00 in0.0 mm 0.00 in0.0 mm 0.00 in0.0 mm
07:59 PM 61.9°F16.6°C -5537.2°C - 1.0 mph W1.6 kmh W 3.6 mph5.8 kmh 25.13 in851.0 mb 0.00 in0.0 mm 0.00 in0.0 mm 0.00 in0.0 mm
07:54 PM 62.1°F16.7°C -5537.2°C - 2.0 mph W3.2 kmh W 4.5 mph7.2 kmh 25.13 in851.0 mb 0.00 in0.0 mm 0.00 in0.0 mm 0.00 in0.0 mm
07:49 PM 63.1°F17.3°C -5537.2°C - 1.0 mph W1.6 kmh W 4.5 mph7.2 kmh 25.13 in851.0 mb 0.00 in0.0 mm 0.00 in0.0 mm 0.00 in0.0 mm
07:44 PM 63.7°F17.6°C -5537.2°C - Calm Calm 2.7 mph4.3 kmh 25.13 in851.0 mb 0.00 in0.0 mm 0.00 in0.0 mm 0.00 in0.0 mm
07:39 PM 64.4°F18.0°C -5537.2°C - Calm Calm -- 25.13 in851.0 mb 0.00 in0.0 mm 0.00 in0.0 mm 0.00 in0.0 mm
07:34 PM 65.1°F18.4°C -5537.2°C - Calm Calm -- 25.13 in851.0 mb 0.00 in0.0 mm 0.00 in0.0 mm 0.00 in0.0 mm
07:29 PM 66.2°F19.0°C -5537.2°C - Calm Calm 3.6 mph5.8 kmh 25.13 in851.0 mb 0.00 in0.0 mm 0.00 in0.0 mm 0.00 in0.0 mm
07:24 PM 66.7°F19.3°C -5537.2°C - Calm Calm -- 25.13 in851.0 mb 0.00 in0.0 mm 0.00 in0.0 mm 0.00 in0.0 mm
07:19 PM 67.8°F19.9°C -5537.2°C - 1.0 mph W1.6 kmh W 3.6 mph5.8 kmh 25.13 in851.0 mb 0.00 in0.0 mm 0.00 in0.0 mm 0.00 in0.0 mm
07:14 PM 68.4°F20.2°C -5537.2°C - 1.0 mph W1.6 kmh W 3.6 mph5.8 kmh 25.13 in851.0 mb 0.00 in0.0 mm 0.00 in0.0 mm 0.00 in0.0 mm
07:09 PM 68.7°F20.4°C -5537.2°C - 2.0 mph W3.2 kmh W 4.5 mph7.2 kmh 25.13 in851.0 mb 0.00 in0.0 mm 0.00 in0.0 mm 0.00 in0.0 mm
07:04 PM 69.1°F20.6°C -5537.2°C - 2.0 mph W3.2 kmh W 4.5 mph7.2 kmh 25.13 in851.0 mb 0.00 in0.0 mm 0.00 in0.0 mm 0.00 in0.0 mm
06:59 PM 69.6°F20.9°C -5537.2°C - 3.0 mph WSW4.8 kmh WSW 4.9 mph7.9 kmh 25.13 in851.0 mb 0.00 in0.0 mm 0.00 in0.0 mm 0.00 in0.0 mm
06:54 PM 70.0°F21.1°C -5537.2°C - 4.0 mph WSW6.4 kmh WSW 7.4 mph11.9 kmh 25.13 in851.0 mb 0.00 in0.0 mm 0.00 in0.0 mm 0.00 in0.0 mm
06:49 PM 70.2°F21.2°C -5537.2°C - 4.0 mph WSW6.4 kmh WSW 6.7 mph10.8 kmh 25.13 in851.0 mb 0.00 in0.0 mm 0.00 in0.0 mm 0.00 in0.0 mm
06:44 PM 70.3°F21.3°C -5537.2°C - 4.0 mph WSW6.4 kmh WSW 5.8 mph9.3 kmh 25.13 in851.0 mb 0.00 in0.0 mm 0.00 in0.0 mm 0.00 in0.0 mm
06:39 PM 70.5°F21.4°C -5537.2°C - 6.0 mph WSW9.7 kmh WSW 7.8 mph12.6 kmh 25.13 in851.0 mb 0.00 in0.0 mm 0.00 in0.0 mm 0.00 in0.0 mm
06:34 PM 70.7°F21.5°C -5537.2°C - 6.0 mph W9.7 kmh W 8.7 mph14.0 kmh 25.13 in851.0 mb 0.00 in0.0 mm 0.00 in0.0 mm 0.00 in0.0 mm
06:29 PM 70.7°F21.5°C -5537.2°C - 6.0 mph W9.7 kmh W 10.5 mph16.9 kmh 25.13 in851.0 mb 0.00 in0.0 mm 0.00 in0.0 mm 0.00 in0.0 mm
06:24 PM 71.2°F21.8°C -5537.2°C - 6.0 mph SW9.7 kmh SW 9.6 mph15.4 kmh 25.13 in851.0 mb 0.00 in0.0 mm 0.00 in0.0 mm 0.00 in0.0 mm
06:19 PM 71.6°F22.0°C -5537.2°C - 5.0 mph SW8.0 kmh SW 8.3 mph13.4 kmh 25.13 in851.0 mb 0.00 in0.0 mm 0.00 in0.0 mm 0.00 in0.0 mm
06:14 PM 71.6°F22.0°C -5537.2°C - 5.0 mph WSW8.0 kmh WSW 8.7 mph14.0 kmh 25.13 in851.0 mb 0.00 in0.0 mm 0.00 in0.0 mm 0.00 in0.0 mm
06:09 PM 71.4°F21.9°C -5537.2°C - 5.0 mph WSW8.0 kmh WSW 8.3 mph13.4 kmh 25.13 in851.0 mb 0.00 in0.0 mm 0.00 in0.0 mm 0.00 in0.0 mm
06:04 PM 71.8°F22.1°C -5537.2°C - 5.0 mph SW8.0 kmh SW 8.3 mph13.4 kmh 25.13 in851.0 mb 0.00 in0.0 mm 0.00 in0.0 mm 0.00 in0.0 mm
05:59 PM 72.1°F22.3°C -5537.2°C - 6.0 mph WSW9.7 kmh WSW 9.2 mph14.8 kmh 25.13 in851.0 mb 0.00 in0.0 mm 0.00 in0.0 mm 0.00 in0.0 mm
05:54 PM 71.6°F22.0°C -5537.2°C - 6.0 mph WSW9.7 kmh WSW 9.6 mph15.4 kmh 25.13 in851.0 mb 0.00 in0.0 mm 0.00 in0.0 mm 0.00 in0.0 mm
05:49 PM 71.4°F21.9°C -5537.2°C - 6.0 mph WSW9.7 kmh WSW 8.3 mph13.4 kmh 25.13 in851.0 mb 0.00 in0.0 mm 0.00 in0.0 mm 0.00 in0.0 mm
05:44 PM 71.8°F22.1°C -5537.2°C - 6.0 mph SW9.7 kmh SW 11.0 mph17.7 kmh 25.13 in851.0 mb 0.00 in0.0 mm 0.00 in0.0 mm 0.00 in0.0 mm
05:39 PM 71.6°F22.0°C -5537.2°C - 5.0 mph SSW8.0 kmh SSW 10.1 mph16.3 kmh 25.13 in851.0 mb 0.00 in0.0 mm 0.00 in0.0 mm 0.00 in0.0 mm
05:34 PM 71.6°F22.0°C -5537.2°C - 5.0 mph S8.0 kmh S 9.2 mph14.8 kmh 25.13 in851.0 mb 0.00 in0.0 mm 0.00 in0.0 mm 0.00 in0.0 mm
05:29 PM 71.8°F22.1°C -5537.2°C - 6.0 mph SSW9.7 kmh SSW 10.5 mph16.9 kmh 25.13 in851.0 mb 0.00 in0.0 mm 0.00 in0.0 mm 0.00 in0.0 mm
05:19 PM 71.8°F22.1°C -5537.2°C - 6.0 mph SW9.7 kmh SW 9.6 mph15.4 kmh 25.13 in851.0 mb 0.00 in0.0 mm 0.00 in0.0 mm 0.00 in0.0 mm
05:14 PM 71.6°F22.0°C -5537.2°C - 7.0 mph SW11.3 kmh SW 10.1 mph16.3 kmh 25.13 in851.0 mb 0.00 in0.0 mm 0.00 in0.0 mm 0.00 in0.0 mm
05:09 PM 72.3°F22.4°C -5537.2°C - 7.0 mph SW11.3 kmh SW 13.0 mph20.9 kmh 25.13 in851.0 mb 0.00 in0.0 mm 0.00 in0.0 mm 0.00 in0.0 mm
05:04 PM 72.1°F22.3°C -5537.2°C - 6.0 mph SW9.7 kmh SW 11.6 mph18.7 kmh 25.13 in851.0 mb 0.00 in0.0 mm 0.00 in0.0 mm 0.00 in0.0 mm
04:59 PM 72.7°F22.6°C -5537.2°C - 6.0 mph S9.7 kmh S 9.2 mph14.8 kmh 25.13 in851.0 mb 0.00 in0.0 mm 0.00 in0.0 mm 0.00 in0.0 mm
04:54 PM 72.3°F22.4°C -5537.2°C - 6.0 mph SSW9.7 kmh SSW 12.1 mph19.5 kmh 25.13 in851.0 mb 0.00 in0.0 mm 0.00 in0.0 mm 0.00 in0.0 mm
04:49 PM 72.0°F22.2°C -5537.2°C - 7.0 mph SW11.3 kmh SW 9.6 mph15.4 kmh 25.13 in851.0 mb 0.00 in0.0 mm 0.00 in0.0 mm 0.00 in0.0 mm
04:44 PM 71.6°F22.0°C -5537.2°C - 7.0 mph WSW11.3 kmh WSW 11.6 mph18.7 kmh 25.16 in852.0 mb 0.00 in0.0 mm 0.00 in0.0 mm 0.00 in0.0 mm
04:39 PM 71.4°F21.9°C -5537.2°C - 5.0 mph SW8.0 kmh SW 10.5 mph16.9 kmh 25.16 in852.0 mb 0.00 in0.0 mm 0.00 in0.0 mm 0.00 in0.0 mm
04:34 PM 72.0°F22.2°C -5537.2°C - 5.0 mph SSW8.0 kmh SSW 8.3 mph13.4 kmh 25.16 in852.0 mb 0.00 in0.0 mm 0.00 in0.0 mm 0.00 in0.0 mm
04:29 PM 72.5°F22.5°C -5537.2°C - 6.0 mph SSW9.7 kmh SSW 10.1 mph16.3 kmh 25.16 in852.0 mb 0.00 in0.0 mm 0.00 in0.0 mm 0.00 in0.0 mm
04:24 PM 72.0°F22.2°C -5537.2°C - 7.0 mph SSW11.3 kmh SSW 11.6 mph18.7 kmh 25.16 in852.0 mb 0.00 in0.0 mm 0.00 in0.0 mm 0.00 in0.0 mm
04:19 PM 72.1°F22.3°C -5537.2°C - 6.0 mph SW9.7 kmh SW 10.5 mph16.9 kmh 25.16 in852.0 mb 0.00 in0.0 mm 0.00 in0.0 mm 0.00 in0.0 mm
04:14 PM 71.4°F21.9°C -5537.2°C - 5.0 mph SW8.0 kmh SW 9.6 mph15.4 kmh 25.16 in852.0 mb 0.00 in0.0 mm 0.00 in0.0 mm 0.00 in0.0 mm
04:09 PM 71.4°F21.9°C -5537.2°C - 5.0 mph SSW8.0 kmh SSW 9.2 mph14.8 kmh 25.16 in852.0 mb 0.00 in0.0 mm 0.00 in0.0 mm 0.00 in0.0 mm
04:04 PM 71.8°F22.1°C -5537.2°C - 7.0 mph S11.3 kmh S 11.6 mph18.7 kmh 25.16 in852.0 mb 0.00 in0.0 mm 0.00 in0.0 mm 0.00 in0.0 mm
03:59 PM 72.3°F22.4°C -5537.2°C - 6.0 mph SSW9.7 kmh SSW 11.6 mph18.7 kmh 25.16 in852.0 mb 0.00 in0.0 mm 0.00 in0.0 mm 0.00 in0.0 mm
03:54 PM 71.8°F22.1°C -5537.2°C - 5.0 mph SW8.0 kmh SW 12.1 mph19.5 kmh 25.16 in852.0 mb 0.00 in0.0 mm 0.00 in0.0 mm 0.00 in0.0 mm
03:49 PM 71.1°F21.7°C -5537.2°C - 5.0 mph SW8.0 kmh SW 8.7 mph14.0 kmh 25.16 in852.0 mb 0.00 in0.0 mm 0.00 in0.0 mm 0.00 in0.0 mm
03:44 PM 70.9°F21.6°C -5537.2°C - 5.0 mph SW8.0 kmh SW 13.9 mph22.4 kmh 25.16 in852.0 mb 0.00 in0.0 mm 0.00 in0.0 mm 0.00 in0.0 mm
03:39 PM 70.3°F21.3°C -5537.2°C - 5.0 mph SSW8.0 kmh SSW 8.7 mph14.0 kmh 25.16 in852.0 mb 0.00 in0.0 mm 0.00 in0.0 mm 0.00 in0.0 mm
03:34 PM 70.7°F21.5°C -5537.2°C - 6.0 mph S9.7 kmh S 11.2 mph18.0 kmh 25.16 in852.0 mb 0.00 in0.0 mm 0.00 in0.0 mm 0.00 in0.0 mm
03:29 PM 71.2°F21.8°C -5537.2°C - 6.0 mph S9.7 kmh S 9.2 mph14.8 kmh 25.19 in853.0 mb 0.00 in0.0 mm 0.00 in0.0 mm 0.00 in0.0 mm
03:24 PM 71.2°F21.8°C -5537.2°C - 5.0 mph SW8.0 kmh SW 9.6 mph15.4 kmh 25.19 in853.0 mb 0.00 in0.0 mm 0.00 in0.0 mm 0.00 in0.0 mm
03:19 PM 70.3°F21.3°C -5537.2°C - 6.0 mph SW9.7 kmh SW 10.1 mph16.3 kmh 25.19 in853.0 mb 0.00 in0.0 mm 0.00 in0.0 mm 0.00 in0.0 mm
03:14 PM 70.2°F21.2°C -5537.2°C - 6.0 mph SW9.7 kmh SW 13.9 mph22.4 kmh 25.19 in853.0 mb 0.00 in0.0 mm 0.00 in0.0 mm 0.00 in0.0 mm
03:04 PM 69.8°F21.0°C -5537.2°C - 6.0 mph SW9.7 kmh SW 10.5 mph16.9 kmh 25.19 in853.0 mb 0.00 in0.0 mm 0.00 in0.0 mm 0.00 in0.0 mm
02:59 PM 69.1°F20.6°C -5537.2°C - 5.0 mph SW8.0 kmh SW 9.2 mph14.8 kmh 25.19 in853.0 mb 0.00 in0.0 mm 0.00 in0.0 mm 0.00 in0.0 mm
02:54 PM 68.7°F20.4°C -5537.2°C - 5.0 mph WSW8.0 kmh WSW 11.0 mph17.7 kmh 25.19 in853.0 mb 0.00 in0.0 mm 0.00 in0.0 mm 0.00 in0.0 mm
02:49 PM 68.7°F20.4°C -5537.2°C - 6.0 mph WSW9.7 kmh WSW 10.1 mph16.3 kmh 25.19 in853.0 mb 0.00 in0.0 mm 0.00 in0.0 mm 0.00 in0.0 mm
02:44 PM 68.7°F20.4°C -5537.2°C - 6.0 mph SW9.7 kmh SW 11.2 mph18.0 kmh 25.19 in853.0 mb 0.00 in0.0 mm 0.00 in0.0 mm 0.00 in0.0 mm
02:39 PM 69.3°F20.7°C -5537.2°C - 6.0 mph SSW9.7 kmh SSW 10.1 mph16.3 kmh 25.19 in853.0 mb 0.00 in0.0 mm 0.00 in0.0 mm 0.00 in0.0 mm
02:34 PM 68.9°F20.5°C -5537.2°C - 5.0 mph WSW8.0 kmh WSW 11.0 mph17.7 kmh 25.19 in853.0 mb 0.00 in0.0 mm 0.00 in0.0 mm 0.00 in0.0 mm
02:29 PM 68.7°F20.4°C -5537.2°C - 5.0 mph WSW8.0 kmh WSW 9.2 mph14.8 kmh 25.22 in854.0 mb 0.00 in0.0 mm 0.00 in0.0 mm 0.00 in0.0 mm
02:24 PM 68.4°F20.2°C -5537.2°C - 5.0 mph NNW8.0 kmh NNW 9.2 mph14.8 kmh 25.22 in854.0 mb 0.00 in0.0 mm 0.00 in0.0 mm 0.00 in0.0 mm
02:19 PM 67.5°F19.7°C -5537.2°C - 4.0 mph N6.4 kmh N 6.9 mph11.1 kmh 25.22 in854.0 mb 0.00 in0.0 mm 0.00 in0.0 mm 0.00 in0.0 mm
02:14 PM 67.6°F19.8°C -5537.2°C - 5.0 mph NW8.0 kmh NW 6.9 mph11.1 kmh 25.22 in854.0 mb 0.00 in0.0 mm 0.00 in0.0 mm 0.00 in0.0 mm
02:09 PM 67.3°F19.6°C -5537.2°C - 5.0 mph WSW8.0 kmh WSW 12.1 mph19.5 kmh 25.22 in854.0 mb 0.00 in0.0 mm 0.00 in0.0 mm 0.00 in0.0 mm
02:04 PM 67.8°F19.9°C -5537.2°C - 3.0 mph WSW4.8 kmh WSW 8.7 mph14.0 kmh 25.22 in854.0 mb 0.00 in0.0 mm 0.00 in0.0 mm 0.00 in0.0 mm
01:59 PM 67.3°F19.6°C -5537.2°C - 4.0 mph SW6.4 kmh SW 8.3 mph13.4 kmh 25.22 in854.0 mb 0.00 in0.0 mm 0.00 in0.0 mm 0.00 in0.0 mm
01:54 PM 67.3°F19.6°C -5537.2°C - 4.0 mph S6.4 kmh S 7.8 mph12.6 kmh 25.22 in854.0 mb 0.00 in0.0 mm 0.00 in0.0 mm 0.00 in0.0 mm
01:49 PM 67.6°F19.8°C -5537.2°C - 4.0 mph E6.4 kmh E 7.8 mph12.6 kmh 25.22 in854.0 mb 0.00 in0.0 mm 0.00 in0.0 mm 0.00 in0.0 mm
01:44 PM 67.1°F19.5°C -5537.2°C - 4.0 mph ESE6.4 kmh ESE 7.4 mph11.9 kmh 25.22 in854.0 mb 0.00 in0.0 mm 0.00 in0.0 mm 0.00 in0.0 mm
01:39 PM 67.3°F19.6°C -5537.2°C - 3.0 mph SE4.8 kmh SE 7.4 mph11.9 kmh 25.22 in854.0 mb 0.00 in0.0 mm 0.00 in0.0 mm 0.00 in0.0 mm
01:34 PM 67.1°F19.5°C -5537.2°C - 3.0 mph SE4.8 kmh SE 5.4 mph8.7 kmh 25.22 in854.0 mb 0.00 in0.0 mm 0.00 in0.0 mm 0.00 in0.0 mm
01:29 PM 66.2°F19.0°C -5537.2°C - 5.0 mph SE8.0 kmh SE 7.4 mph11.9 kmh 25.25 in855.1 mb 0.00 in0.0 mm 0.00 in0.0 mm 0.00 in0.0 mm
01:24 PM 66.0°F18.9°C -5537.2°C - 4.0 mph S6.4 kmh S 9.6 mph15.4 kmh 25.25 in855.1 mb 0.00 in0.0 mm 0.00 in0.0 mm 0.00 in0.0 mm
01:19 PM 65.3°F18.5°C -5537.2°C - 4.0 mph S6.4 kmh S 6.7 mph10.8 kmh 25.25 in855.1 mb 0.00 in0.0 mm 0.00 in0.0 mm 0.00 in0.0 mm
01:14 PM 65.3°F18.5°C -5537.2°C - 4.0 mph S6.4 kmh S 7.4 mph11.9 kmh 25.25 in855.1 mb 0.00 in0.0 mm 0.00 in0.0 mm 0.00 in0.0 mm
01:09 PM 64.8°F18.2°C -5537.2°C - 4.0 mph S6.4 kmh S 7.4 mph11.9 kmh 25.25 in855.1 mb 0.00 in0.0 mm 0.00 in0.0 mm 0.00 in0.0 mm
01:04 PM 64.8°F18.2°C -5537.2°C - 4.0 mph SW6.4 kmh SW 7.8 mph12.6 kmh 25.25 in855.1 mb 0.00 in0.0 mm 0.00 in0.0 mm 0.00 in0.0 mm
12:59 PM 64.8°F18.2°C -5537.2°C - 4.0 mph WNW6.4 kmh WNW 7.8 mph12.6 kmh 25.25 in855.1 mb 0.00 in0.0 mm 0.00 in0.0 mm 0.00 in0.0 mm
12:54 PM 65.1°F18.4°C -5537.2°C - 4.0 mph N6.4 kmh N 7.4 mph11.9 kmh 25.25 in855.1 mb 0.00 in0.0 mm 0.00 in0.0 mm 0.00 in0.0 mm
12:49 PM 64.8°F18.2°C -5537.2°C - 4.0 mph N6.4 kmh N 6.7 mph10.8 kmh 25.25 in855.1 mb 0.00 in0.0 mm 0.00 in0.0 mm 0.00 in0.0 mm
12:44 PM 64.8°F18.2°C -5537.2°C - 4.0 mph N6.4 kmh N 8.3 mph13.4 kmh 25.25 in855.1 mb 0.00 in0.0 mm 0.00 in0.0 mm 0.00 in0.0 mm
12:39 PM 63.9°F17.7°C -5537.2°C - 4.0 mph NNE6.4 kmh NNE 7.8 mph12.6 kmh 25.25 in855.1 mb 0.00 in0.0 mm 0.00 in0.0 mm 0.00 in0.0 mm
12:34 PM 64.0°F17.8°C -5537.2°C - 3.0 mph NE4.8 kmh NE 6.7 mph10.8 kmh 25.25 in855.1 mb 0.00 in0.0 mm 0.00 in0.0 mm 0.00 in0.0 mm
12:29 PM 63.3°F17.4°C -5537.2°C - 4.0 mph NE6.4 kmh NE 5.8 mph9.3 kmh 25.28 in856.1 mb 0.00 in0.0 mm 0.00 in0.0 mm 0.00 in0.0 mm
12:24 PM 62.6°F17.0°C -5537.2°C - 4.0 mph ENE6.4 kmh ENE 8.7 mph14.0 kmh 25.28 in856.1 mb 0.00 in0.0 mm 0.00 in0.0 mm 0.00 in0.0 mm
12:19 PM 63.5°F17.5°C -5537.2°C - 4.0 mph NE6.4 kmh NE 8.7 mph14.0 kmh 25.28 in856.1 mb 0.00 in0.0 mm 0.00 in0.0 mm 0.00 in0.0 mm
12:14 PM 61.9°F16.6°C -5537.2°C - 4.0 mph NNE6.4 kmh NNE 8.7 mph14.0 kmh 25.28 in856.1 mb 0.00 in0.0 mm 0.00 in0.0 mm 0.00 in0.0 mm
12:09 PM 62.2°F16.8°C -5537.2°C - 4.0 mph NNE6.4 kmh NNE 6.3 mph10.1 kmh 25.28 in856.1 mb 0.00 in0.0 mm 0.00 in0.0 mm 0.00 in0.0 mm
12:04 PM 61.9°F16.6°C -5537.2°C - 5.0 mph N8.0 kmh N 6.9 mph11.1 kmh 25.28 in856.1 mb 0.00 in0.0 mm 0.00 in0.0 mm 0.00 in0.0 mm
11:59 AM 61.3°F16.3°C -5537.2°C - 5.0 mph N8.0 kmh N 9.6 mph15.4 kmh 25.28 in856.1 mb 0.00 in0.0 mm 0.00 in0.0 mm 0.00 in0.0 mm
11:54 AM 61.3°F16.3°C -5537.2°C - 5.0 mph N8.0 kmh N 6.9 mph11.1 kmh 25.28 in856.1 mb 0.00 in0.0 mm 0.00 in0.0 mm 0.00 in0.0 mm
11:49 AM 61.5°F16.4°C -5537.2°C - 5.0 mph NNW8.0 kmh NNW 9.6 mph15.4 kmh 25.28 in856.1 mb 0.00 in0.0 mm 0.00 in0.0 mm 0.00 in0.0 mm
11:44 AM 60.3°F15.7°C -5537.2°C - 6.0 mph NNW9.7 kmh NNW 8.3 mph13.4 kmh 25.28 in856.1 mb 0.00 in0.0 mm 0.00 in0.0 mm 0.00 in0.0 mm
11:39 AM 59.9°F15.5°C -5537.2°C - 6.0 mph N9.7 kmh N 11.2 mph18.0 kmh 25.28 in856.1 mb 0.00 in0.0 mm 0.00 in0.0 mm 0.00 in0.0 mm
11:34 AM 59.7°F15.4°C -5537.2°C - 6.0 mph N9.7 kmh N 9.2 mph14.8 kmh 25.28 in856.1 mb 0.00 in0.0 mm 0.00 in0.0 mm 0.00 in0.0 mm
11:29 AM 59.4°F15.2°C -5537.2°C - 6.0 mph N9.7 kmh N 9.6 mph15.4 kmh 25.28 in856.1 mb 0.00 in0.0 mm 0.00 in0.0 mm 0.00 in0.0 mm
11:24 AM 59.9°F15.5°C -5537.2°C - 6.0 mph N9.7 kmh N 9.6 mph15.4 kmh 25.28 in856.1 mb 0.00 in0.0 mm 0.00 in0.0 mm 0.00 in0.0 mm
11:19 AM 59.4°F15.2°C -5537.2°C - 7.0 mph N11.3 kmh N 11.0 mph17.7 kmh 25.28 in856.1 mb 0.00 in0.0 mm 0.00 in0.0 mm 0.00 in0.0 mm
11:14 AM 57.7°F14.3°C -5537.2°C - 6.0 mph NNW9.7 kmh NNW 10.5 mph16.9 kmh 25.28 in856.1 mb 0.00 in0.0 mm 0.00 in0.0 mm 0.00 in0.0 mm
11:09 AM 57.6°F14.2°C -5537.2°C - 6.0 mph NNW9.7 kmh NNW 9.6 mph15.4 kmh 25.28 in856.1 mb 0.00 in0.0 mm 0.00 in0.0 mm 0.00 in0.0 mm
11:04 AM 57.7°F14.3°C -5537.2°C - 6.0 mph NNW9.7 kmh NNW 10.5 mph16.9 kmh 25.28 in856.1 mb 0.00 in0.0 mm 0.00 in0.0 mm 0.00 in0.0 mm
10:59 AM 56.7°F13.7°C -5537.2°C - 7.0 mph NNW11.3 kmh NNW 10.1 mph16.3 kmh 25.31 in857.1 mb 0.00 in0.0 mm 0.00 in0.0 mm 0.00 in0.0 mm
10:54 AM 56.7°F13.7°C -5537.2°C - 7.0 mph NNW11.3 kmh NNW 10.5 mph16.9 kmh 25.31 in857.1 mb 0.00 in0.0 mm 0.00 in0.0 mm 0.00 in0.0 mm
10:49 AM 56.5°F13.6°C -5537.2°C - 7.0 mph N11.3 kmh N 11.0 mph17.7 kmh 25.31 in857.1 mb 0.00 in0.0 mm 0.00 in0.0 mm 0.00 in0.0 mm
10:44 AM 56.3°F13.5°C -5537.2°C - 8.0 mph N12.9 kmh N 12.1 mph19.5 kmh 25.31 in857.1 mb 0.00 in0.0 mm 0.00 in0.0 mm 0.00 in0.0 mm
10:39 AM 55.8°F13.2°C -5537.2°C - 9.0 mph N14.5 kmh N 13.4 mph21.6 kmh 25.31 in857.1 mb 0.00 in0.0 mm 0.00 in0.0 mm 0.00 in0.0 mm
10:34 AM 55.9°F13.3°C -5537.2°C - 9.0 mph N14.5 kmh N 13.0 mph20.9 kmh 25.31 in857.1 mb 0.00 in0.0 mm 0.00 in0.0 mm 0.00 in0.0 mm
10:28 AM 55.2°F12.9°C -5537.2°C - 8.0 mph N12.9 kmh N 13.9 mph22.4 kmh 25.31 in857.1 mb 0.00 in0.0 mm 0.00 in0.0 mm 0.00 in0.0 mm
10:23 AM 54.5°F12.5°C -5537.2°C - 7.0 mph N11.3 kmh N 11.2 mph18.0 kmh 25.31 in857.1 mb 0.00 in0.0 mm 0.00 in0.0 mm 0.00 in0.0 mm
10:18 AM 55.2°F12.9°C -5537.2°C - 7.0 mph N11.3 kmh N 11.0 mph17.7 kmh 25.31 in857.1 mb 0.00 in0.0 mm 0.00 in0.0 mm 0.00 in0.0 mm
10:13 AM 54.5°F12.5°C -5537.2°C - 7.0 mph N11.3 kmh N 11.0 mph17.7 kmh 25.31 in857.1 mb 0.00 in0.0 mm 0.00 in0.0 mm 0.00 in0.0 mm
10:08 AM 54.7°F12.6°C 3.0°F-16.1°C 12% 7.0 mph N11.3 kmh N 11.0 mph17.7 kmh 25.31 in857.1 mb 0.00 in0.0 mm 0.00 in0.0 mm 0.00 in0.0 mm
10:03 AM 53.8°F12.1°C 4.1°F-15.5°C 13% 7.0 mph N11.3 kmh N 10.1 mph16.3 kmh 25.31 in857.1 mb 0.00 in0.0 mm 0.00 in0.0 mm 0.00 in0.0 mm
09:58 AM 54.0°F12.2°C 4.3°F-15.4°C 13% 7.0 mph N11.3 kmh N 9.2 mph14.8 kmh 25.31 in857.1 mb 0.00 in0.0 mm 0.00 in0.0 mm 0.00 in0.0 mm
09:53 AM 53.1°F11.7°C 3.6°F-15.8°C 13% 8.0 mph N12.9 kmh N 11.0 mph17.7 kmh 25.31 in857.1 mb 0.00 in0.0 mm 0.00 in0.0 mm 0.00 in0.0 mm
09:48 AM 52.2°F11.2°C 2.8°F-16.2°C 13% 9.0 mph N14.5 kmh N 12.5 mph20.1 kmh 25.31 in857.1 mb 0.00 in0.0 mm 0.00 in0.0 mm 0.00 in0.0 mm
09:43 AM 52.5°F11.4°C 3.2°F-16.0°C 13% 9.0 mph N14.5 kmh N 14.3 mph23.0 kmh 25.31 in857.1 mb 0.00 in0.0 mm 0.00 in0.0 mm 0.00 in0.0 mm
09:38 AM 52.2°F11.2°C 7.3°F-13.7°C 16% 8.0 mph N12.9 kmh N 13.4 mph21.6 kmh 25.31 in857.1 mb 0.00 in0.0 mm 0.00 in0.0 mm 0.00 in0.0 mm
09:33 AM 51.8°F11.0°C 7.0°F-13.9°C 16% 6.0 mph N9.7 kmh N 10.5 mph16.9 kmh 25.31 in857.1 mb 0.00 in0.0 mm 0.00 in0.0 mm 0.00 in0.0 mm
09:28 AM 50.5°F10.3°C 6.1°F-14.4°C 16% 5.0 mph N8.0 kmh N 8.3 mph13.4 kmh 25.31 in857.1 mb 0.00 in0.0 mm 0.00 in0.0 mm 0.00 in0.0 mm
09:23 AM 50.7°F10.4°C 12.2°F-11.0°C 21% 5.0 mph N8.0 kmh N 6.7 mph10.8 kmh 25.31 in857.1 mb 0.00 in0.0 mm 0.00 in0.0 mm 0.00 in0.0 mm
09:18 AM 49.3°F9.6°C 10.9°F-11.7°C 21% 5.0 mph N8.0 kmh N 7.8 mph12.6 kmh 25.31 in857.1 mb 0.00 in0.0 mm 0.00 in0.0 mm 0.00 in0.0 mm
09:08 AM 47.3°F8.5°C 15.1°F-9.4°C 27% 6.0 mph NW9.7 kmh NW 7.8 mph12.6 kmh 25.31 in857.1 mb 0.00 in0.0 mm 0.00 in0.0 mm 0.00 in0.0 mm
09:03 AM 46.6°F8.1°C 14.4°F-9.8°C 27% 6.0 mph NW9.7 kmh NW 7.4 mph11.9 kmh 25.31 in857.1 mb 0.00 in0.0 mm 0.00 in0.0 mm 0.00 in0.0 mm
08:58 AM 46.4°F8.0°C 14.2°F-9.9°C 27% 6.0 mph NW9.7 kmh NW 7.8 mph12.6 kmh 25.31 in857.1 mb 0.00 in0.0 mm 0.00 in0.0 mm 0.00 in0.0 mm
08:53 AM 47.3°F8.5°C 12.4°F-10.9°C 24% 5.0 mph NW8.0 kmh NW 6.7 mph10.8 kmh 25.31 in857.1 mb 0.00 in0.0 mm 0.00 in0.0 mm 0.00 in0.0 mm
08:48 AM 46.8°F8.2°C 11.8°F-11.2°C 24% 6.0 mph NW9.7 kmh NW 7.4 mph11.9 kmh 25.31 in857.1 mb 0.00 in0.0 mm 0.00 in0.0 mm 0.00 in0.0 mm
08:43 AM 46.2°F7.9°C 11.5°F-11.4°C 24% 5.0 mph NW8.0 kmh NW 8.7 mph14.0 kmh 25.31 in857.1 mb 0.00 in0.0 mm 0.00 in0.0 mm 0.00 in0.0 mm
08:38 AM 46.9°F8.3°C 10.0°F-12.2°C 22% 2.0 mph N3.2 kmh N 8.7 mph14.0 kmh 25.31 in857.1 mb 0.00 in0.0 mm 0.00 in0.0 mm 0.00 in0.0 mm
08:33 AM 49.1°F9.5°C 10.9°F-11.7°C 21% Calm Calm 3.1 mph5.0 kmh 25.31 in857.1 mb 0.00 in0.0 mm 0.00 in0.0 mm 0.00 in0.0 mm
08:28 AM 47.7°F8.7°C 12.7°F-10.7°C 24% Calm Calm 3.6 mph5.8 kmh 25.31 in857.1 mb 0.00 in0.0 mm 0.00 in0.0 mm 0.00 in0.0 mm
08:23 AM 46.8°F8.2°C 11.8°F-11.2°C 24% Calm Calm 4.0 mph6.4 kmh 25.31 in857.1 mb 0.00 in0.0 mm 0.00 in0.0 mm 0.00 in0.0 mm
08:18 AM 46.2°F7.9°C 14.9°F-9.5°C 28% Calm Calm -- 25.31 in857.1 mb 0.00 in0.0 mm 0.00 in0.0 mm 0.00 in0.0 mm
08:13 AM 44.6°F7.0°C 15.1°F-9.4°C 30% 1.0 mph NNE1.6 kmh NNE 4.0 mph6.4 kmh 25.31 in857.1 mb 0.00 in0.0 mm 0.00 in0.0 mm 0.00 in0.0 mm
08:08 AM 41.4°F5.2°C 13.8°F-10.1°C 32% 1.0 mph NNE1.6 kmh NNE 4.0 mph6.4 kmh 25.31 in857.1 mb 0.00 in0.0 mm 0.00 in0.0 mm 0.00 in0.0 mm
08:03 AM 40.1°F4.5°C 16.0°F-8.9°C 37% Calm Calm 3.6 mph5.8 kmh 25.31 in857.1 mb 0.00 in0.0 mm 0.00 in0.0 mm 0.00 in0.0 mm
07:58 AM 38.1°F3.4°C 15.4°F-9.2°C 39% Calm Calm -- 25.31 in857.1 mb 0.00 in0.0 mm 0.00 in0.0 mm 0.00 in0.0 mm
07:53 AM 36.0°F2.2°C 13.5°F-10.3°C 39% 1.0 mph NNE1.6 kmh NNE -- 25.31 in857.1 mb 0.00 in0.0 mm 0.00 in0.0 mm 0.00 in0.0 mm
07:48 AM 35.6°F2.0°C 13.1°F-10.5°C 39% 2.0 mph NNE3.2 kmh NNE 4.9 mph7.9 kmh 25.31 in857.1 mb 0.00 in0.0 mm 0.00 in0.0 mm 0.00 in0.0 mm
07:43 AM 35.6°F2.0°C 13.1°F-10.5°C 39% 2.0 mph N3.2 kmh N 3.6 mph5.8 kmh 25.31 in857.1 mb 0.00 in0.0 mm 0.00 in0.0 mm 0.00 in0.0 mm
07:38 AM 35.6°F2.0°C 13.1°F-10.5°C 39% 2.0 mph N3.2 kmh N 4.9 mph7.9 kmh 25.31 in857.1 mb 0.00 in0.0 mm 0.00 in0.0 mm 0.00 in0.0 mm
07:33 AM 35.4°F1.9°C 12.9°F-10.6°C 39% Calm Calm 3.1 mph5.0 kmh 25.31 in857.1 mb 0.00 in0.0 mm 0.00 in0.0 mm 0.00 in0.0 mm
07:28 AM 35.1°F1.7°C 12.0°F-11.1°C 38% Calm Calm -- 25.31 in857.1 mb 0.00 in0.0 mm 0.00 in0.0 mm 0.00 in0.0 mm
07:23 AM 34.9°F1.6°C 10.6°F-11.9°C 36% Calm Calm 3.1 mph5.0 kmh 25.31 in857.1 mb 0.00 in0.0 mm 0.00 in0.0 mm 0.00 in0.0 mm
07:18 AM 35.2°F1.8°C 10.4°F-12.0°C 35% 1.0 mph N1.6 kmh N 3.6 mph5.8 kmh 25.31 in857.1 mb 0.00 in0.0 mm 0.00 in0.0 mm 0.00 in0.0 mm
07:13 AM 35.8°F2.1°C 10.2°F-12.1°C 34% 2.0 mph NNE3.2 kmh NNE 4.9 mph7.9 kmh 25.28 in856.1 mb 0.00 in0.0 mm 0.00 in0.0 mm 0.00 in0.0 mm
07:08 AM 35.8°F2.1°C 9.5°F-12.5°C 33% Calm Calm 4.9 mph7.9 kmh 25.28 in856.1 mb 0.00 in0.0 mm 0.00 in0.0 mm 0.00 in0.0 mm
07:03 AM 36.0°F2.2°C 10.4°F-12.0°C 34% Calm Calm -- 25.28 in856.1 mb 0.00 in0.0 mm 0.00 in0.0 mm 0.00 in0.0 mm
06:58 AM 36.3°F2.4°C 9.3°F-12.6°C 32% Calm Calm 2.7 mph4.3 kmh 25.28 in856.1 mb 0.00 in0.0 mm 0.00 in0.0 mm 0.00 in0.0 mm
06:53 AM 36.5°F2.5°C 8.8°F-12.9°C 31% Calm Calm -- 25.28 in856.1 mb 0.00 in0.0 mm 0.00 in0.0 mm 0.00 in0.0 mm
06:48 AM 36.9°F2.7°C 9.1°F-12.7°C 31% Calm Calm -- 25.28 in856.1 mb 0.00 in0.0 mm 0.00 in0.0 mm 0.00 in0.0 mm
06:43 AM 37.2°F2.9°C 8.6°F-13.0°C 30% Calm Calm -- 25.28 in856.1 mb 0.00 in0.0 mm 0.00 in0.0 mm 0.00 in0.0 mm
06:38 AM 37.9°F3.3°C 9.3°F-12.6°C 30% 1.0 mph NNE1.6 kmh NNE -- 25.28 in856.1 mb 0.00 in0.0 mm 0.00 in0.0 mm 0.00 in0.0 mm
06:33 AM 38.5°F3.6°C 9.0°F-12.8°C 29% 3.0 mph NNE4.8 kmh NNE 4.5 mph7.2 kmh 25.28 in856.1 mb 0.00 in0.0 mm 0.00 in0.0 mm 0.00 in0.0 mm
06:28 AM 40.5°F4.7°C 10.0°F-12.2°C 28% 2.0 mph N3.2 kmh N 4.9 mph7.9 kmh 25.28 in856.1 mb 0.00 in0.0 mm 0.00 in0.0 mm 0.00 in0.0 mm
06:23 AM 40.5°F4.7°C 10.8°F-11.8°C 29% Calm Calm 3.6 mph5.8 kmh 25.28 in856.1 mb 0.00 in0.0 mm 0.00 in0.0 mm 0.00 in0.0 mm
06:18 AM 39.6°F4.2°C 10.0°F-12.2°C 29% Calm Calm 3.6 mph5.8 kmh 25.28 in856.1 mb 0.00 in0.0 mm 0.00 in0.0 mm 0.00 in0.0 mm
06:13 AM 39.4°F4.1°C 9.9°F-12.3°C 29% 1.0 mph N1.6 kmh N 3.6 mph5.8 kmh 25.28 in856.1 mb 0.00 in0.0 mm 0.00 in0.0 mm 0.00 in0.0 mm
06:08 AM 39.4°F4.1°C 10.6°F-11.9°C 30% 2.0 mph N3.2 kmh N 4.0 mph6.4 kmh 25.28 in856.1 mb 0.00 in0.0 mm 0.00 in0.0 mm 0.00 in0.0 mm
06:03 AM 39.4°F4.1°C 10.6°F-11.9°C 30% 2.0 mph N3.2 kmh N 4.5 mph7.2 kmh 25.28 in856.1 mb 0.00 in0.0 mm 0.00 in0.0 mm 0.00 in0.0 mm
05:58 AM 38.7°F3.7°C 9.9°F-12.3°C 30% 2.0 mph N3.2 kmh N 4.0 mph6.4 kmh 25.28 in856.1 mb 0.00 in0.0 mm 0.00 in0.0 mm 0.00 in0.0 mm
05:53 AM 38.1°F3.4°C 10.2°F-12.1°C 31% 1.0 mph N1.6 kmh N 4.0 mph6.4 kmh 25.28 in856.1 mb 0.00 in0.0 mm 0.00 in0.0 mm 0.00 in0.0 mm
05:48 AM 38.5°F3.6°C 9.9°F-12.3°C 30% Calm Calm -- 25.28 in856.1 mb 0.00 in0.0 mm 0.00 in0.0 mm 0.00 in0.0 mm
05:43 AM 38.5°F3.6°C 9.9°F-12.3°C 30% Calm Calm 3.1 mph5.0 kmh 25.28 in856.1 mb 0.00 in0.0 mm 0.00 in0.0 mm 0.00 in0.0 mm
05:38 AM 38.1°F3.4°C 9.5°F-12.5°C 30% 2.0 mph N3.2 kmh N 4.0 mph6.4 kmh 25.28 in856.1 mb 0.00 in0.0 mm 0.00 in0.0 mm 0.00 in0.0 mm
05:33 AM 38.7°F3.7°C 9.9°F-12.3°C 30% 2.0 mph N3.2 kmh N 4.0 mph6.4 kmh 25.28 in856.1 mb 0.00 in0.0 mm 0.00 in0.0 mm 0.00 in0.0 mm
05:28 AM 38.5°F3.6°C 9.0°F-12.8°C 29% 2.0 mph N3.2 kmh N 4.0 mph6.4 kmh 25.28 in856.1 mb 0.00 in0.0 mm 0.00 in0.0 mm 0.00 in0.0 mm
05:23 AM 39.4°F4.1°C 9.9°F-12.3°C 29% 4.0 mph N6.4 kmh N 4.5 mph7.2 kmh 25.28 in856.1 mb 0.00 in0.0 mm 0.00 in0.0 mm 0.00 in0.0 mm
05:18 AM 39.9°F4.4°C 10.9°F-11.7°C 30% 3.0 mph N4.8 kmh N 4.5 mph7.2 kmh 25.28 in856.1 mb 0.00 in0.0 mm 0.00 in0.0 mm 0.00 in0.0 mm
05:13 AM 38.8°F3.8°C 10.0°F-12.2°C 30% 3.0 mph N4.8 kmh N 4.5 mph7.2 kmh 25.28 in856.1 mb 0.00 in0.0 mm 0.00 in0.0 mm 0.00 in0.0 mm
05:08 AM 38.5°F3.6°C 9.9°F-12.3°C 30% 2.0 mph N3.2 kmh N 3.6 mph5.8 kmh 25.28 in856.1 mb 0.00 in0.0 mm 0.00 in0.0 mm 0.00 in0.0 mm
05:03 AM 38.7°F3.7°C 9.9°F-12.3°C 30% 2.0 mph N3.2 kmh N 4.0 mph6.4 kmh 25.28 in856.1 mb 0.00 in0.0 mm 0.00 in0.0 mm 0.00 in0.0 mm
04:58 AM 38.1°F3.4°C 9.5°F-12.5°C 30% 4.0 mph N6.4 kmh N 4.9 mph7.9 kmh 25.28 in856.1 mb 0.00 in0.0 mm 0.00 in0.0 mm 0.00 in0.0 mm
04:53 AM 39.2°F4.0°C 10.4°F-12.0°C 30% 5.0 mph N8.0 kmh N 5.8 mph9.3 kmh 25.28 in856.1 mb 0.00 in0.0 mm 0.00 in0.0 mm 0.00 in0.0 mm
04:48 AM 39.6°F4.2°C 10.8°F-11.8°C 30% 5.0 mph NNE8.0 kmh NNE 6.3 mph10.1 kmh 25.28 in856.1 mb 0.00 in0.0 mm 0.00 in0.0 mm 0.00 in0.0 mm
04:43 AM 39.0°F3.9°C 10.2°F-12.1°C 30% 4.0 mph NE6.4 kmh NE 6.7 mph10.8 kmh 25.28 in856.1 mb 0.00 in0.0 mm 0.00 in0.0 mm 0.00 in0.0 mm
04:38 AM 37.8°F3.2°C 9.1°F-12.7°C 30% 4.0 mph E6.4 kmh E 5.4 mph8.7 kmh 25.28 in856.1 mb 0.00 in0.0 mm 0.00 in0.0 mm 0.00 in0.0 mm
04:33 AM 37.9°F3.3°C 8.6°F-13.0°C 29% 4.0 mph E6.4 kmh E 5.4 mph8.7 kmh 25.28 in856.1 mb 0.00 in0.0 mm 0.00 in0.0 mm 0.00 in0.0 mm
04:28 AM 39.6°F4.2°C 10.0°F-12.2°C 29% 3.0 mph E4.8 kmh E 5.4 mph8.7 kmh 25.28 in856.1 mb 0.00 in0.0 mm 0.00 in0.0 mm 0.00 in0.0 mm
04:18 AM 39.7°F4.3°C 7.7°F-13.5°C 26% 1.0 mph E1.6 kmh E 4.0 mph6.4 kmh 25.28 in856.1 mb 0.00 in0.0 mm 0.00 in0.0 mm 0.00 in0.0 mm
04:13 AM 40.1°F4.5°C 8.1°F-13.3°C 26% Calm Calm -- 25.28 in856.1 mb 0.00 in0.0 mm 0.00 in0.0 mm 0.00 in0.0 mm
04:08 AM 40.3°F4.6°C 8.2°F-13.2°C 26% Calm Calm -- 25.28 in856.1 mb 0.00 in0.0 mm 0.00 in0.0 mm 0.00 in0.0 mm
04:03 AM 40.3°F4.6°C 5.5°F-14.7°C 23% Calm Calm 3.1 mph5.0 kmh 25.28 in856.1 mb 0.00 in0.0 mm 0.00 in0.0 mm 0.00 in0.0 mm
03:58 AM 39.9°F4.4°C 3.2°F-16.0°C 21% Calm Calm 2.7 mph4.3 kmh 25.28 in856.1 mb 0.00 in0.0 mm 0.00 in0.0 mm 0.00 in0.0 mm
03:53 AM 39.9°F4.4°C 3.2°F-16.0°C 21% Calm Calm -- 25.28 in856.1 mb 0.00 in0.0 mm 0.00 in0.0 mm 0.00 in0.0 mm
03:48 AM 40.5°F4.7°C 0.3°F-17.6°C 18% 2.0 mph E3.2 kmh E 4.0 mph6.4 kmh 25.28 in856.1 mb 0.00 in0.0 mm 0.00 in0.0 mm 0.00 in0.0 mm
03:43 AM 41.5°F5.3°C -1.3°F-18.5°C 16% 2.0 mph ENE3.2 kmh ENE 4.9 mph7.9 kmh 25.28 in856.1 mb 0.00 in0.0 mm 0.00 in0.0 mm 0.00 in0.0 mm
03:38 AM 42.8°F6.0°C -1.7°F-18.7°C 15% 2.0 mph N3.2 kmh N 6.3 mph10.1 kmh 25.28 in856.1 mb 0.00 in0.0 mm 0.00 in0.0 mm 0.00 in0.0 mm
03:33 AM 43.7°F6.5°C -0.9°F-18.3°C 15% 2.0 mph N3.2 kmh N 3.6 mph5.8 kmh 25.28 in856.1 mb 0.00 in0.0 mm 0.00 in0.0 mm 0.00 in0.0 mm
03:28 AM 44.8°F7.1°C 0.0°F-17.8°C 15% 2.0 mph NNE3.2 kmh NNE 5.4 mph8.7 kmh 25.28 in856.1 mb 0.00 in0.0 mm 0.00 in0.0 mm 0.00 in0.0 mm
03:23 AM 45.3°F7.4°C 0.5°F-17.5°C 15% Calm Calm 3.1 mph5.0 kmh 25.28 in856.1 mb 0.00 in0.0 mm 0.00 in0.0 mm 0.00 in0.0 mm
03:18 AM 44.6°F7.0°C -0.2°F-17.9°C 15% Calm Calm 2.7 mph4.3 kmh 25.28 in856.1 mb 0.00 in0.0 mm 0.00 in0.0 mm 0.00 in0.0 mm
03:13 AM 43.5°F6.4°C -0.9°F-18.3°C 15% Calm Calm -- 25.28 in856.1 mb 0.00 in0.0 mm 0.00 in0.0 mm 0.00 in0.0 mm
03:08 AM 43.3°F6.3°C -1.1°F-18.4°C 15% Calm Calm -- 25.28 in856.1 mb 0.00 in0.0 mm 0.00 in0.0 mm 0.00 in0.0 mm
02:58 AM 42.8°F6.0°C -1.7°F-18.7°C 15% Calm Calm -- 25.28 in856.1 mb 0.00 in0.0 mm 0.00 in0.0 mm 0.00 in0.0 mm
02:53 AM 41.9°F5.5°C -0.9°F-18.3°C 16% Calm Calm -- 25.28 in856.1 mb 0.00 in0.0 mm 0.00 in0.0 mm 0.00 in0.0 mm
02:48 AM 41.7°F5.4°C -1.1°F-18.4°C 16% 1.0 mph NE1.6 kmh NE 3.6 mph5.8 kmh 25.28 in856.1 mb 0.00 in0.0 mm 0.00 in0.0 mm 0.00 in0.0 mm
02:43 AM 41.7°F5.4°C -1.1°F-18.4°C 16% 1.0 mph NE1.6 kmh NE 3.6 mph5.8 kmh 25.28 in856.1 mb 0.00 in0.0 mm 0.00 in0.0 mm 0.00 in0.0 mm
02:38 AM 42.4°F5.8°C -1.8°F-18.8°C 15% 2.0 mph NE3.2 kmh NE 4.5 mph7.2 kmh 25.28 in856.1 mb 0.00 in0.0 mm 0.00 in0.0 mm 0.00 in0.0 mm
02:33 AM 42.8°F6.0°C -4.5°F-20.3°C 13% 2.0 mph NE3.2 kmh NE 4.5 mph7.2 kmh 25.28 in856.1 mb 0.00 in0.0 mm 0.00 in0.0 mm 0.00 in0.0 mm
02:28 AM 44.1°F6.7°C -5.3°F-20.7°C 12% 3.0 mph ENE4.8 kmh ENE 4.9 mph7.9 kmh 25.28 in856.1 mb 0.00 in0.0 mm 0.00 in0.0 mm 0.00 in0.0 mm
02:23 AM 43.5°F6.4°C -0.9°F-18.3°C 15% 2.0 mph ESE3.2 kmh ESE 5.4 mph8.7 kmh 25.28 in856.1 mb 0.00 in0.0 mm 0.00 in0.0 mm 0.00 in0.0 mm
02:18 AM 43.0°F6.1°C -1.5°F-18.6°C 15% Calm Calm 3.6 mph5.8 kmh 25.28 in856.1 mb 0.00 in0.0 mm 0.00 in0.0 mm 0.00 in0.0 mm
02:13 AM 43.5°F6.4°C -4.0°F-20.0°C 13% Calm Calm 3.6 mph5.8 kmh 25.28 in856.1 mb 0.00 in0.0 mm 0.00 in0.0 mm 0.00 in0.0 mm
02:08 AM 43.2°F6.2°C -4.4°F-20.2°C 13% Calm Calm 2.7 mph4.3 kmh 25.28 in856.1 mb 0.00 in0.0 mm 0.00 in0.0 mm 0.00 in0.0 mm
02:03 AM 43.9°F6.6°C -5.4°F-20.8°C 12% 1.0 mph SE1.6 kmh SE 4.0 mph6.4 kmh 25.28 in856.1 mb 0.00 in0.0 mm 0.00 in0.0 mm 0.00 in0.0 mm
01:58 AM 44.6°F7.0°C -4.9°F-20.5°C 12% 2.0 mph SE3.2 kmh SE 4.9 mph7.9 kmh 25.28 in856.1 mb 0.00 in0.0 mm 0.00 in0.0 mm 0.00 in0.0 mm
01:53 AM 45.0°F7.2°C -4.5°F-20.3°C 12% 2.0 mph SE3.2 kmh SE 4.5 mph7.2 kmh 25.28 in856.1 mb 0.00 in0.0 mm 0.00 in0.0 mm 0.00 in0.0 mm
01:48 AM 44.1°F6.7°C -5.3°F-20.7°C 12% 1.0 mph SE1.6 kmh SE 3.6 mph5.8 kmh 25.28 in856.1 mb 0.00 in0.0 mm 0.00 in0.0 mm 0.00 in0.0 mm
01:43 AM 44.4°F6.9°C -4.9°F-20.5°C 12% 2.0 mph SE3.2 kmh SE 4.0 mph6.4 kmh 25.28 in856.1 mb 0.00 in0.0 mm 0.00 in0.0 mm 0.00 in0.0 mm
01:38 AM 44.6°F7.0°C -4.9°F-20.5°C 12% 3.0 mph SE4.8 kmh SE 4.5 mph7.2 kmh 25.28 in856.1 mb 0.00 in0.0 mm 0.00 in0.0 mm 0.00 in0.0 mm
01:33 AM 45.3°F7.4°C -4.2°F-20.1°C 12% 2.0 mph SE3.2 kmh SE 4.9 mph7.9 kmh 25.28 in856.1 mb 0.00 in0.0 mm 0.00 in0.0 mm 0.00 in0.0 mm
01:28 AM 45.7°F7.6°C -5537.2°C - 2.0 mph SE3.2 kmh SE 3.6 mph5.8 kmh 25.28 in856.1 mb 0.00 in0.0 mm 0.00 in0.0 mm 0.00 in0.0 mm
01:23 AM 46.2°F7.9°C -5537.2°C - 3.0 mph ESE4.8 kmh ESE 4.9 mph7.9 kmh 25.28 in856.1 mb 0.00 in0.0 mm 0.00 in0.0 mm 0.00 in0.0 mm
01:18 AM 47.3°F8.5°C -5537.2°C - 3.0 mph E4.8 kmh E 4.0 mph6.4 kmh 25.28 in856.1 mb 0.00 in0.0 mm 0.00 in0.0 mm 0.00 in0.0 mm
01:13 AM 47.8°F8.8°C -5537.2°C - 4.0 mph E6.4 kmh E 5.8 mph9.3 kmh 25.28 in856.1 mb 0.00 in0.0 mm 0.00 in0.0 mm 0.00 in0.0 mm
01:08 AM 48.0°F8.9°C -5537.2°C - 3.0 mph ESE4.8 kmh ESE 6.9 mph11.1 kmh 25.28 in856.1 mb 0.00 in0.0 mm 0.00 in0.0 mm 0.00 in0.0 mm
01:03 AM 47.8°F8.8°C -5537.2°C - 2.0 mph ESE3.2 kmh ESE 4.9 mph7.9 kmh 25.28 in856.1 mb 0.00 in0.0 mm 0.00 in0.0 mm 0.00 in0.0 mm
12:58 AM 47.8°F8.8°C -5537.2°C - 1.0 mph ESE1.6 kmh ESE 4.0 mph6.4 kmh 25.28 in856.1 mb 0.00 in0.0 mm 0.00 in0.0 mm 0.00 in0.0 mm
12:53 AM 48.4°F9.1°C -5537.2°C - Calm Calm 3.1 mph5.0 kmh 25.28 in856.1 mb 0.00 in0.0 mm 0.00 in0.0 mm 0.00 in0.0 mm
12:48 AM 48.4°F9.1°C -5537.2°C - 1.0 mph ESE1.6 kmh ESE -- 25.28 in856.1 mb 0.00 in0.0 mm 0.00 in0.0 mm 0.00 in0.0 mm
12:43 AM 48.6°F9.2°C -5537.2°C - 2.0 mph ESE3.2 kmh ESE 4.0 mph6.4 kmh 25.28 in856.1 mb 0.00 in0.0 mm 0.00 in0.0 mm 0.00 in0.0 mm
12:38 AM 48.6°F9.2°C -5537.2°C - 2.0 mph ESE3.2 kmh ESE 5.8 mph9.3 kmh 25.28 in856.1 mb 0.00 in0.0 mm 0.00 in0.0 mm 0.00 in0.0 mm
12:33 AM 48.4°F9.1°C -5537.2°C - 1.0 mph ESE1.6 kmh ESE 4.0 mph6.4 kmh 25.28 in856.1 mb 0.00 in0.0 mm 0.00 in0.0 mm 0.00 in0.0 mm
12:28 AM 48.4°F9.1°C -5537.2°C - 1.0 mph ESE1.6 kmh ESE 4.5 mph7.2 kmh 25.28 in856.1 mb 0.00 in0.0 mm 0.00 in0.0 mm 0.00 in0.0 mm
12:23 AM 48.4°F9.1°C -5537.2°C - Calm Calm 3.1 mph5.0 kmh 25.28 in856.1 mb 0.00 in0.0 mm 0.00 in0.0 mm 0.00 in0.0 mm
12:18 AM 48.2°F9.0°C -5537.2°C - Calm Calm 4.9 mph7.9 kmh 25.28 in856.1 mb 0.00 in0.0 mm 0.00 in0.0 mm 0.00 in0.0 mm
12:13 AM 48.4°F9.1°C -5537.2°C - 1.0 mph ESE1.6 kmh ESE 3.6 mph5.8 kmh 25.28 in856.1 mb 0.00 in0.0 mm 0.00 in0.0 mm 0.00 in0.0 mm
12:08 AM 48.7°F9.3°C -5537.2°C - 2.0 mph E3.2 kmh E 5.4 mph8.7 kmh 25.28 in856.1 mb 0.00 in0.0 mm 0.00 in0.0 mm 0.00 in0.0 mm
12:03 AM 48.9°F9.4°C -5537.2°C - 2.0 mph E3.2 kmh E 5.8 mph9.3 kmh 25.28 in856.1 mb 0.00 in0.0 mm 0.00 in0.0 mm 0.00 in0.0 mm